Airport View

Enter AWOS ICAO identifier for current METAR.

ex. KFNL

KFNL 250256Z AUTO 00000KT 10SM BKN110 16/12 A3015 RMK AO2 SLP167 T01560117 51012

25 Jun 2018 03:52

Frequency: 135.075

Phone: 970-669-9187

Other Area AWOS: KGXY - KLMO - KEIK - KBDU

TAF KBJC 242331Z 2500/2524 02008KT P6SM VCSH SCT070 BKN110 FM250300 34007KT P6SM FEW080 SCT120 FM250600 25006KT P6SM FEW120 FM251700 32007KT P6SM FEW120 SCT220 FM252100 05006KT P6SM FEW110 SCT200